sensor_id;sensor_type;location;lat;lon;timestamp;P1;durP1;ratioP1;P2;durP2;ratioP2
18336;SDS011;9294;51.106;7.028;2023-05-18T00:00:04;1.90;;;1.80;;
18336;SDS011;9294;51.106;7.028;2023-05-18T00:02:35;2.40;;;1.85;;
18336;SDS011;9294;51.106;7.028;2023-05-18T00:05:01;1.98;;;1.88;;
18336;SDS011;9294;51.106;7.028;2023-05-18T00:07:28;2.20;;;1.90;;
18336;SDS011;9294;51.106;7.028;2023-05-18T00:09:59;1.50;;;1.50;;
18336;SDS011;9294;51.106;7.028;2023-05-18T00:12:26;1.77;;;1.67;;
18336;SDS011;9294;51.106;7.028;2023-05-18T00:14:53;1.50;;;1.50;;
18336;SDS011;9294;51.106;7.028;2023-05-18T00:17:20;1.85;;;1.75;;
18336;SDS011;9294;51.106;7.028;2023-05-18T00:19:47;1.70;;;1.60;;
18336;SDS011;9294;51.106;7.028;2023-05-18T00:22:14;1.60;;;1.60;;
18336;SDS011;9294;51.106;7.028;2023-05-18T00:24:42;1.60;;;1.60;;
18336;SDS011;9294;51.106;7.028;2023-05-18T00:27:10;1.25;;;1.25;;
18336;SDS011;9294;51.106;7.028;2023-05-18T00:29:37;1.75;;;1.50;;
18336;SDS011;9294;51.106;7.028;2023-05-18T00:32:04;1.80;;;1.70;;
18336;SDS011;9294;51.106;7.028;2023-05-18T00:34:31;1.38;;;1.27;;
18336;SDS011;9294;51.106;7.028;2023-05-18T00:36:58;1.52;;;1.52;;
18336;SDS011;9294;51.106;7.028;2023-05-18T00:39:24;1.52;;;1.50;;
18336;SDS011;9294;51.106;7.028;2023-05-18T00:41:51;1.88;;;1.77;;
18336;SDS011;9294;51.106;7.028;2023-05-18T00:44:19;1.95;;;1.77;;
18336;SDS011;9294;51.106;7.028;2023-05-18T00:46:46;2.13;;;1.77;;
18336;SDS011;9294;51.106;7.028;2023-05-18T00:49:14;2.33;;;1.67;;
18336;SDS011;9294;51.106;7.028;2023-05-18T00:51:42;1.63;;;1.52;;
18336;SDS011;9294;51.106;7.028;2023-05-18T00:54:10;1.73;;;1.63;;
18336;SDS011;9294;51.106;7.028;2023-05-18T00:56:36;1.30;;;1.30;;
18336;SDS011;9294;51.106;7.028;2023-05-18T00:59:05;2.00;;;1.90;;
18336;SDS011;9294;51.106;7.028;2023-05-18T01:01:34;1.80;;;1.70;;
18336;SDS011;9294;51.106;7.028;2023-05-18T01:04:07;1.45;;;1.38;;
18336;SDS011;9294;51.106;7.028;2023-05-18T01:06:34;1.65;;;1.55;;
18336;SDS011;9294;51.106;7.028;2023-05-18T01:09:02;1.70;;;1.60;;
18336;SDS011;9294;51.106;7.028;2023-05-18T01:11:32;2.08;;;1.85;;
18336;SDS011;9294;51.106;7.028;2023-05-18T01:14:05;1.48;;;1.45;;
18336;SDS011;9294;51.106;7.028;2023-05-18T01:16:40;1.60;;;1.50;;
18336;SDS011;9294;51.106;7.028;2023-05-18T01:19:19;2.00;;;1.80;;
18336;SDS011;9294;51.106;7.028;2023-05-18T01:22:02;1.73;;;1.63;;
18336;SDS011;9294;51.106;7.028;2023-05-18T01:24:47;1.48;;;1.40;;
18336;SDS011;9294;51.106;7.028;2023-05-18T01:27:18;1.80;;;1.50;;
18336;SDS011;9294;51.106;7.028;2023-05-18T01:29:48;1.83;;;1.73;;
18336;SDS011;9294;51.106;7.028;2023-05-18T01:32:17;1.52;;;1.45;;
18336;SDS011;9294;51.106;7.028;2023-05-18T01:34:44;1.63;;;1.58;;
18336;SDS011;9294;51.106;7.028;2023-05-18T01:37:11;1.40;;;1.40;;
18336;SDS011;9294;51.106;7.028;2023-05-18T01:39:38;1.70;;;1.60;;
18336;SDS011;9294;51.106;7.028;2023-05-18T01:42:07;1.58;;;1.58;;
18336;SDS011;9294;51.106;7.028;2023-05-18T01:44:40;1.85;;;1.83;;
18336;SDS011;9294;51.106;7.028;2023-05-18T01:47:13;1.95;;;1.85;;
18336;SDS011;9294;51.106;7.028;2023-05-18T01:49:42;1.70;;;1.60;;
18336;SDS011;9294;51.106;7.028;2023-05-18T01:52:12;2.47;;;1.73;;
18336;SDS011;9294;51.106;7.028;2023-05-18T01:54:45;1.38;;;1.27;;
18336;SDS011;9294;51.106;7.028;2023-05-18T01:57:15;1.83;;;1.73;;
18336;SDS011;9294;51.106;7.028;2023-05-18T01:59:46;1.75;;;1.65;;
18336;SDS011;9294;51.106;7.028;2023-05-18T02:02:13;1.63;;;1.52;;
18336;SDS011;9294;51.106;7.028;2023-05-18T02:04:41;3.08;;;2.05;;
18336;SDS011;9294;51.106;7.028;2023-05-18T02:07:08;1.65;;;1.63;;
18336;SDS011;9294;51.106;7.028;2023-05-18T02:09:34;2.00;;;1.67;;
18336;SDS011;9294;51.106;7.028;2023-05-18T02:12:01;1.77;;;1.67;;
18336;SDS011;9294;51.106;7.028;2023-05-18T02:14:28;2.00;;;1.90;;
18336;SDS011;9294;51.106;7.028;2023-05-18T02:16:56;1.75;;;1.65;;
18336;SDS011;9294;51.106;7.028;2023-05-18T02:19:23;1.88;;;1.77;;
18336;SDS011;9294;51.106;7.028;2023-05-18T02:21:50;1.60;;;1.60;;
18336;SDS011;9294;51.106;7.028;2023-05-18T02:24:16;1.85;;;1.75;;
18336;SDS011;9294;51.106;7.028;2023-05-18T02:26:43;2.05;;;1.85;;
18336;SDS011;9294;51.106;7.028;2023-05-18T02:29:10;1.60;;;1.60;;
18336;SDS011;9294;51.106;7.028;2023-05-18T02:31:38;2.25;;;2.05;;
18336;SDS011;9294;51.106;7.028;2023-05-18T02:34:06;1.80;;;1.70;;
18336;SDS011;9294;51.106;7.028;2023-05-18T02:36:34;1.80;;;1.70;;
18336;SDS011;9294;51.106;7.028;2023-05-18T02:39:03;1.90;;;1.70;;
18336;SDS011;9294;51.106;7.028;2023-05-18T02:41:31;2.20;;;2.00;;
18336;SDS011;9294;51.106;7.028;2023-05-18T02:43:57;1.83;;;1.73;;
18336;SDS011;9294;51.106;7.028;2023-05-18T02:46:26;1.83;;;1.73;;
18336;SDS011;9294;51.106;7.028;2023-05-18T02:48:52;1.55;;;1.55;;
18336;SDS011;9294;51.106;7.028;2023-05-18T02:51:20;1.50;;;1.50;;
18336;SDS011;9294;51.106;7.028;2023-05-18T02:53:48;1.58;;;1.48;;
18336;SDS011;9294;51.106;7.028;2023-05-18T02:56:15;1.40;;;1.35;;
18336;SDS011;9294;51.106;7.028;2023-05-18T02:58:42;1.60;;;1.50;;
18336;SDS011;9294;51.106;7.028;2023-05-18T03:01:09;1.60;;;1.50;;
18336;SDS011;9294;51.106;7.028;2023-05-18T03:03:37;1.60;;;1.60;;
18336;SDS011;9294;51.106;7.028;2023-05-18T03:06:06;1.65;;;1.58;;
18336;SDS011;9294;51.106;7.028;2023-05-18T03:08:34;2.67;;;1.50;;
18336;SDS011;9294;51.106;7.028;2023-05-18T03:11:01;1.65;;;1.63;;
18336;SDS011;9294;51.106;7.028;2023-05-18T03:13:28;2.33;;;1.50;;
18336;SDS011;9294;51.106;7.028;2023-05-18T03:15:55;2.00;;;1.90;;
18336;SDS011;9294;51.106;7.028;2023-05-18T03:18:22;1.85;;;1.77;;
18336;SDS011;9294;51.106;7.028;2023-05-18T03:20:49;1.52;;;1.52;;
18336;SDS011;9294;51.106;7.028;2023-05-18T03:23:16;1.75;;;1.65;;
18336;SDS011;9294;51.106;7.028;2023-05-18T03:25:45;1.90;;;1.80;;
18336;SDS011;9294;51.106;7.028;2023-05-18T03:28:17;1.83;;;1.73;;
18336;SDS011;9294;51.106;7.028;2023-05-18T03:30:44;1.63;;;1.50;;
18336;SDS011;9294;51.106;7.028;2023-05-18T03:33:11;1.63;;;1.60;;
18336;SDS011;9294;51.106;7.028;2023-05-18T03:35:38;1.80;;;1.70;;
18336;SDS011;9294;51.106;7.028;2023-05-18T03:38:05;1.70;;;1.60;;
18336;SDS011;9294;51.106;7.028;2023-05-18T03:40:32;1.70;;;1.60;;
18336;SDS011;9294;51.106;7.028;2023-05-18T03:43:00;1.48;;;1.38;;
18336;SDS011;9294;51.106;7.028;2023-05-18T03:45:26;1.67;;;1.58;;
18336;SDS011;9294;51.106;7.028;2023-05-18T03:47:53;1.58;;;1.50;;
18336;SDS011;9294;51.106;7.028;2023-05-18T03:50:20;1.52;;;1.50;;
18336;SDS011;9294;51.106;7.028;2023-05-18T03:52:47;1.55;;;1.45;;
18336;SDS011;9294;51.106;7.028;2023-05-18T03:55:16;2.08;;;1.95;;
18336;SDS011;9294;51.106;7.028;2023-05-18T03:57:45;1.27;;;1.17;;
18336;SDS011;9294;51.106;7.028;2023-05-18T04:00:13;2.15;;;1.88;;
18336;SDS011;9294;51.106;7.028;2023-05-18T04:02:40;1.60;;;1.50;;
18336;SDS011;9294;51.106;7.028;2023-05-18T04:05:07;1.50;;;1.50;;
18336;SDS011;9294;51.106;7.028;2023-05-18T04:07:35;1.55;;;1.55;;
18336;SDS011;9294;51.106;7.028;2023-05-18T04:10:07;1.50;;;1.40;;
18336;SDS011;9294;51.106;7.028;2023-05-18T04:12:35;1.30;;;1.30;;
18336;SDS011;9294;51.106;7.028;2023-05-18T04:15:01;1.73;;;1.63;;
18336;SDS011;9294;51.106;7.028;2023-05-18T04:17:30;1.30;;;1.30;;
18336;SDS011;9294;51.106;7.028;2023-05-18T04:19:57;1.85;;;1.58;;
18336;SDS011;9294;51.106;7.028;2023-05-18T04:22:25;1.70;;;1.60;;
18336;SDS011;9294;51.106;7.028;2023-05-18T04:24:55;1.55;;;1.45;;
18336;SDS011;9294;51.106;7.028;2023-05-18T04:27:21;1.55;;;1.55;;
18336;SDS011;9294;51.106;7.028;2023-05-18T04:29:49;1.90;;;1.80;;
18336;SDS011;9294;51.106;7.028;2023-05-18T04:32:15;1.67;;;1.58;;
18336;SDS011;9294;51.106;7.028;2023-05-18T04:34:44;1.58;;;1.42;;
18336;SDS011;9294;51.106;7.028;2023-05-18T04:37:13;1.55;;;1.50;;
18336;SDS011;9294;51.106;7.028;2023-05-18T04:39:41;1.45;;;1.35;;
18336;SDS011;9294;51.106;7.028;2023-05-18T04:42:08;1.50;;;1.50;;
18336;SDS011;9294;51.106;7.028;2023-05-18T04:44:38;2.00;;;1.90;;
18336;SDS011;9294;51.106;7.028;2023-05-18T04:47:04;1.80;;;1.70;;
18336;SDS011;9294;51.106;7.028;2023-05-18T04:49:32;1.60;;;1.50;;
18336;SDS011;9294;51.106;7.028;2023-05-18T04:52:00;1.40;;;1.30;;
18336;SDS011;9294;51.106;7.028;2023-05-18T04:54:27;1.42;;;1.33;;
18336;SDS011;9294;51.106;7.028;2023-05-18T04:56:56;1.55;;;1.45;;
18336;SDS011;9294;51.106;7.028;2023-05-18T04:59:23;1.77;;;1.67;;
18336;SDS011;9294;51.106;7.028;2023-05-18T05:01:53;1.40;;;1.40;;
18336;SDS011;9294;51.106;7.028;2023-05-18T05:04:20;1.70;;;1.70;;
18336;SDS011;9294;51.106;7.028;2023-05-18T05:06:47;1.23;;;1.23;;
18336;SDS011;9294;51.106;7.028;2023-05-18T05:09:15;1.35;;;1.35;;
18336;SDS011;9294;51.106;7.028;2023-05-18T05:11:42;1.50;;;1.42;;
18336;SDS011;9294;51.106;7.028;2023-05-18T05:14:09;1.42;;;1.33;;
18336;SDS011;9294;51.106;7.028;2023-05-18T05:16:36;1.88;;;1.60;;
18336;SDS011;9294;51.106;7.028;2023-05-18T05:19:02;1.80;;;1.70;;
18336;SDS011;9294;51.106;7.028;2023-05-18T05:21:29;1.40;;;1.30;;
18336;SDS011;9294;51.106;7.028;2023-05-18T05:23:56;1.50;;;1.40;;
18336;SDS011;9294;51.106;7.028;2023-05-18T05:26:24;1.52;;;1.42;;
18336;SDS011;9294;51.106;7.028;2023-05-18T05:28:51;1.70;;;1.60;;
18336;SDS011;9294;51.106;7.028;2023-05-18T05:31:17;1.67;;;1.58;;
18336;SDS011;9294;51.106;7.028;2023-05-18T05:33:44;1.67;;;1.58;;
18336;SDS011;9294;51.106;7.028;2023-05-18T05:36:11;1.42;;;1.42;;
18336;SDS011;9294;51.106;7.028;2023-05-18T05:38:37;1.63;;;1.60;;
18336;SDS011;9294;51.106;7.028;2023-05-18T05:41:04;1.77;;;1.67;;
18336;SDS011;9294;51.106;7.028;2023-05-18T05:43:32;2.55;;;1.83;;
18336;SDS011;9294;51.106;7.028;2023-05-18T05:45:59;4.05;;;1.80;;
18336;SDS011;9294;51.106;7.028;2023-05-18T05:48:26;1.85;;;1.60;;
18336;SDS011;9294;51.106;7.028;2023-05-18T05:50:52;1.60;;;1.50;;
18336;SDS011;9294;51.106;7.028;2023-05-18T05:53:19;3.30;;;1.83;;
18336;SDS011;9294;51.106;7.028;2023-05-18T05:55:47;3.17;;;1.80;;
18336;SDS011;9294;51.106;7.028;2023-05-18T05:58:14;1.50;;;1.40;;
18336;SDS011;9294;51.106;7.028;2023-05-18T06:00:42;1.92;;;1.83;;
18336;SDS011;9294;51.106;7.028;2023-05-18T06:03:11;2.72;;;2.00;;
18336;SDS011;9294;51.106;7.028;2023-05-18T06:05:37;1.50;;;1.40;;
18336;SDS011;9294;51.106;7.028;2023-05-18T06:08:04;1.40;;;1.35;;
18336;SDS011;9294;51.106;7.028;2023-05-18T06:10:31;1.77;;;1.75;;
18336;SDS011;9294;51.106;7.028;2023-05-18T06:12:58;2.75;;;1.77;;
18336;SDS011;9294;51.106;7.028;2023-05-18T06:15:24;1.70;;;1.60;;
18336;SDS011;9294;51.106;7.028;2023-05-18T06:17:52;1.98;;;1.75;;
18336;SDS011;9294;51.106;7.028;2023-05-18T06:20:19;3.38;;;2.00;;
18336;SDS011;9294;51.106;7.028;2023-05-18T06:22:46;2.33;;;2.00;;
18336;SDS011;9294;51.106;7.028;2023-05-18T06:25:12;1.60;;;1.50;;
18336;SDS011;9294;51.106;7.028;2023-05-18T06:27:39;2.20;;;1.63;;
18336;SDS011;9294;51.106;7.028;2023-05-18T06:30:08;1.55;;;1.50;;
18336;SDS011;9294;51.106;7.028;2023-05-18T06:32:35;1.58;;;1.48;;
18336;SDS011;9294;51.106;7.028;2023-05-18T06:35:04;2.30;;;1.60;;
18336;SDS011;9294;51.106;7.028;2023-05-18T06:37:31;1.50;;;1.40;;
18336;SDS011;9294;51.106;7.028;2023-05-18T06:39:58;2.47;;;1.65;;
18336;SDS011;9294;51.106;7.028;2023-05-18T06:42:24;3.85;;;1.90;;
18336;SDS011;9294;51.106;7.028;2023-05-18T06:44:51;4.82;;;2.05;;
18336;SDS011;9294;51.106;7.028;2023-05-18T06:47:18;2.47;;;1.75;;
18336;SDS011;9294;51.106;7.028;2023-05-18T06:49:45;2.40;;;1.88;;
18336;SDS011;9294;51.106;7.028;2023-05-18T06:52:13;3.63;;;2.00;;
18336;SDS011;9294;51.106;7.028;2023-05-18T06:54:40;2.45;;;1.70;;
18336;SDS011;9294;51.106;7.028;2023-05-18T06:57:07;2.05;;;1.70;;
18336;SDS011;9294;51.106;7.028;2023-05-18T06:59:33;3.80;;;2.00;;
18336;SDS011;9294;51.106;7.028;2023-05-18T07:02:00;10.15;;;1.88;;
18336;SDS011;9294;51.106;7.028;2023-05-18T07:04:27;4.18;;;1.83;;
18336;SDS011;9294;51.106;7.028;2023-05-18T07:06:54;3.60;;;1.65;;
18336;SDS011;9294;51.106;7.028;2023-05-18T07:09:22;2.47;;;1.73;;
18336;SDS011;9294;51.106;7.028;2023-05-18T07:11:50;7.55;;;1.73;;
18336;SDS011;9294;51.106;7.028;2023-05-18T07:14:17;1.92;;;1.40;;
18336;SDS011;9294;51.106;7.028;2023-05-18T07:16:43;5.00;;;2.38;;
18336;SDS011;9294;51.106;7.028;2023-05-18T07:19:11;1.67;;;1.48;;
18336;SDS011;9294;51.106;7.028;2023-05-18T07:21:38;1.58;;;1.48;;
18336;SDS011;9294;51.106;7.028;2023-05-18T07:24:05;1.73;;;1.63;;
18336;SDS011;9294;51.106;7.028;2023-05-18T07:26:33;3.78;;;1.80;;
18336;SDS011;9294;51.106;7.028;2023-05-18T07:28:59;1.80;;;1.70;;
18336;SDS011;9294;51.106;7.028;2023-05-18T07:31:26;7.15;;;1.73;;
18336;SDS011;9294;51.106;7.028;2023-05-18T07:33:53;7.80;;;2.33;;
18336;SDS011;9294;51.106;7.028;2023-05-18T07:36:20;6.28;;;2.47;;
18336;SDS011;9294;51.106;7.028;2023-05-18T07:38:46;3.13;;;1.75;;
18336;SDS011;9294;51.106;7.028;2023-05-18T07:41:18;7.65;;;2.67;;
18336;SDS011;9294;51.106;7.028;2023-05-18T07:43:46;9.10;;;2.22;;
18336;SDS011;9294;51.106;7.028;2023-05-18T07:46:12;5.38;;;2.25;;
18336;SDS011;9294;51.106;7.028;2023-05-18T07:48:39;4.57;;;1.95;;
18336;SDS011;9294;51.106;7.028;2023-05-18T07:51:06;4.20;;;1.92;;
18336;SDS011;9294;51.106;7.028;2023-05-18T07:53:33;8.77;;;2.13;;
18336;SDS011;9294;51.106;7.028;2023-05-18T07:56:00;3.03;;;2.30;;
18336;SDS011;9294;51.106;7.028;2023-05-18T07:58:26;2.10;;;2.00;;
18336;SDS011;9294;51.106;7.028;2023-05-18T08:00:54;3.67;;;2.38;;
18336;SDS011;9294;51.106;7.028;2023-05-18T08:03:21;2.10;;;1.95;;
18336;SDS011;9294;51.106;7.028;2023-05-18T08:05:48;4.28;;;1.75;;
18336;SDS011;9294;51.106;7.028;2023-05-18T08:08:14;4.53;;;1.83;;
18336;SDS011;9294;51.106;7.028;2023-05-18T08:10:42;3.63;;;2.00;;
18336;SDS011;9294;51.106;7.028;2023-05-18T08:13:09;5.30;;;1.98;;
18336;SDS011;9294;51.106;7.028;2023-05-18T08:15:37;4.85;;;2.05;;
18336;SDS011;9294;51.106;7.028;2023-05-18T08:18:06;4.32;;;1.98;;
18336;SDS011;9294;51.106;7.028;2023-05-18T08:20:33;2.60;;;2.00;;
18336;SDS011;9294;51.106;7.028;2023-05-18T08:23:00;5.57;;;2.00;;
18336;SDS011;9294;51.106;7.028;2023-05-18T08:25:26;1.67;;;1.63;;
18336;SDS011;9294;51.106;7.028;2023-05-18T08:27:53;2.30;;;2.10;;
18336;SDS011;9294;51.106;7.028;2023-05-18T08:30:20;2.15;;;1.95;;
18336;SDS011;9294;51.106;7.028;2023-05-18T08:32:47;5.35;;;2.22;;
18336;SDS011;9294;51.106;7.028;2023-05-18T08:35:15;5.15;;;1.83;;
18336;SDS011;9294;51.106;7.028;2023-05-18T08:37:41;2.42;;;1.52;;
18336;SDS011;9294;51.106;7.028;2023-05-18T08:40:08;1.73;;;1.63;;
18336;SDS011;9294;51.106;7.028;2023-05-18T08:42:38;6.50;;;2.35;;
18336;SDS011;9294;51.106;7.028;2023-05-18T08:45:09;1.95;;;1.70;;
18336;SDS011;9294;51.106;7.028;2023-05-18T08:47:39;2.50;;;2.00;;
18336;SDS011;9294;51.106;7.028;2023-05-18T08:50:06;2.20;;;1.70;;
18336;SDS011;9294;51.106;7.028;2023-05-18T08:52:40;2.10;;;1.85;;
18336;SDS011;9294;51.106;7.028;2023-05-18T08:55:11;2.55;;;1.70;;
18336;SDS011;9294;51.106;7.028;2023-05-18T08:57:41;2.78;;;1.83;;
18336;SDS011;9294;51.106;7.028;2023-05-18T09:00:14;1.85;;;1.75;;
18336;SDS011;9294;51.106;7.028;2023-05-18T09:02:42;2.30;;;2.10;;
18336;SDS011;9294;51.106;7.028;2023-05-18T09:05:09;8.48;;;2.28;;
18336;SDS011;9294;51.106;7.028;2023-05-18T09:07:38;4.93;;;2.10;;
18336;SDS011;9294;51.106;7.028;2023-05-18T09:10:07;8.18;;;2.30;;
18336;SDS011;9294;51.106;7.028;2023-05-18T09:12:37;2.25;;;2.05;;
18336;SDS011;9294;51.106;7.028;2023-05-18T09:15:07;1.80;;;1.77;;
18336;SDS011;9294;51.106;7.028;2023-05-18T09:17:35;1.88;;;1.73;;
18336;SDS011;9294;51.106;7.028;2023-05-18T09:20:02;2.85;;;2.17;;
18336;SDS011;9294;51.106;7.028;2023-05-18T09:22:31;4.75;;;2.05;;
18336;SDS011;9294;51.106;7.028;2023-05-18T09:25:01;2.03;;;1.70;;
18336;SDS011;9294;51.106;7.028;2023-05-18T09:27:28;2.25;;;1.67;;
18336;SDS011;9294;51.106;7.028;2023-05-18T09:29:56;2.10;;;1.90;;
18336;SDS011;9294;51.106;7.028;2023-05-18T09:32:23;3.60;;;2.13;;
18336;SDS011;9294;51.106;7.028;2023-05-18T09:34:51;8.25;;;2.00;;
18336;SDS011;9294;51.106;7.028;2023-05-18T09:37:20;2.55;;;1.88;;
18336;SDS011;9294;51.106;7.028;2023-05-18T09:39:56;2.20;;;2.00;;
18336;SDS011;9294;51.106;7.028;2023-05-18T09:42:27;4.32;;;1.85;;
18336;SDS011;9294;51.106;7.028;2023-05-18T09:45:01;8.82;;;2.38;;
18336;SDS011;9294;51.106;7.028;2023-05-18T09:47:27;4.07;;;1.95;;
18336;SDS011;9294;51.106;7.028;2023-05-18T09:49:55;2.08;;;1.80;;
18336;SDS011;9294;51.106;7.028;2023-05-18T09:52:22;4.93;;;2.53;;
18336;SDS011;9294;51.106;7.028;2023-05-18T09:54:51;2.65;;;1.77;;
18336;SDS011;9294;51.106;7.028;2023-05-18T09:57:23;3.60;;;2.20;;
18336;SDS011;9294;51.106;7.028;2023-05-18T09:59:55;2.17;;;2.00;;
18336;SDS011;9294;51.106;7.028;2023-05-18T10:02:22;3.25;;;1.77;;
18336;SDS011;9294;51.106;7.028;2023-05-18T10:04:50;2.58;;;1.92;;
18336;SDS011;9294;51.106;7.028;2023-05-18T10:07:17;2.00;;;1.83;;
18336;SDS011;9294;51.106;7.028;2023-05-18T10:09:44;2.10;;;1.90;;
18336;SDS011;9294;51.106;7.028;2023-05-18T10:12:12;3.50;;;2.25;;
18336;SDS011;9294;51.106;7.028;2023-05-18T10:14:40;3.45;;;2.22;;
18336;SDS011;9294;51.106;7.028;2023-05-18T10:17:10;6.93;;;2.42;;
18336;SDS011;9294;51.106;7.028;2023-05-18T10:19:37;10.95;;;2.78;;
18336;SDS011;9294;51.106;7.028;2023-05-18T10:22:07;6.30;;;2.63;;
18336;SDS011;9294;51.106;7.028;2023-05-18T10:24:35;7.28;;;3.00;;
18336;SDS011;9294;51.106;7.028;2023-05-18T10:27:05;5.93;;;3.38;;
18336;SDS011;9294;51.106;7.028;2023-05-18T10:29:33;6.88;;;3.00;;
18336;SDS011;9294;51.106;7.028;2023-05-18T10:32:00;8.93;;;3.65;;
18336;SDS011;9294;51.106;7.028;2023-05-18T10:34:30;9.35;;;3.30;;
18336;SDS011;9294;51.106;7.028;2023-05-18T10:36:58;3.92;;;3.13;;
18336;SDS011;9294;51.106;7.028;2023-05-18T10:39:28;3.40;;;3.00;;
18336;SDS011;9294;51.106;7.028;2023-05-18T10:41:55;6.55;;;3.25;;
18336;SDS011;9294;51.106;7.028;2023-05-18T10:44:24;6.93;;;3.08;;
18336;SDS011;9294;51.106;7.028;2023-05-18T10:46:51;4.68;;;2.78;;
18336;SDS011;9294;51.106;7.028;2023-05-18T10:49:19;4.70;;;2.83;;
18336;SDS011;9294;51.106;7.028;2023-05-18T10:51:50;3.42;;;3.13;;
18336;SDS011;9294;51.106;7.028;2023-05-18T10:54:18;5.15;;;2.78;;
18336;SDS011;9294;51.106;7.028;2023-05-18T10:56:47;5.22;;;2.83;;
18336;SDS011;9294;51.106;7.028;2023-05-18T10:59:16;7.32;;;2.65;;
18336;SDS011;9294;51.106;7.028;2023-05-18T11:01:44;3.22;;;2.67;;
18336;SDS011;9294;51.106;7.028;2023-05-18T11:04:12;3.65;;;2.60;;
18336;SDS011;9294;51.106;7.028;2023-05-18T11:06:39;3.15;;;2.53;;
18336;SDS011;9294;51.106;7.028;2023-05-18T11:09:08;9.80;;;3.28;;
18336;SDS011;9294;51.106;7.028;2023-05-18T11:11:51;8.38;;;3.00;;
18336;SDS011;9294;51.106;7.028;2023-05-18T11:14:27;4.82;;;2.92;;
18336;SDS011;9294;51.106;7.028;2023-05-18T11:22:39;3.50;;;2.28;;
18336;SDS011;9294;51.106;7.028;2023-05-18T11:25:08;9.63;;;3.20;;
18336;SDS011;9294;51.106;7.028;2023-05-18T11:27:56;6.55;;;2.78;;
18336;SDS011;9294;51.106;7.028;2023-05-18T11:30:25;4.72;;;2.30;;
18336;SDS011;9294;51.106;7.028;2023-05-18T11:32:55;2.78;;;2.25;;
18336;SDS011;9294;51.106;7.028;2023-05-18T11:35:33;6.32;;;2.75;;
18336;SDS011;9294;51.106;7.028;2023-05-18T11:38:20;5.35;;;2.38;;
18336;SDS011;9294;51.106;7.028;2023-05-18T11:40:49;2.97;;;2.10;;
18336;SDS011;9294;51.106;7.028;2023-05-18T11:43:16;3.35;;;2.30;;
18336;SDS011;9294;51.106;7.028;2023-05-18T11:45:50;4.68;;;2.53;;
18336;SDS011;9294;51.106;7.028;2023-05-18T11:48:19;6.47;;;2.90;;
18336;SDS011;9294;51.106;7.028;2023-05-18T11:50:46;5.22;;;2.13;;
18336;SDS011;9294;51.106;7.028;2023-05-18T11:53:14;4.35;;;1.83;;
18336;SDS011;9294;51.106;7.028;2023-05-18T11:55:41;5.80;;;2.20;;
18336;SDS011;9294;51.106;7.028;2023-05-18T11:58:11;2.83;;;2.30;;
18336;SDS011;9294;51.106;7.028;2023-05-18T12:00:43;5.57;;;2.40;;
18336;SDS011;9294;51.106;7.028;2023-05-18T12:03:12;5.68;;;2.40;;
18336;SDS011;9294;51.106;7.028;2023-05-18T12:05:39;3.90;;;2.30;;
18336;SDS011;9294;51.106;7.028;2023-05-18T12:08:08;3.10;;;2.20;;
18336;SDS011;9294;51.106;7.028;2023-05-18T12:10:36;3.17;;;2.20;;
18336;SDS011;9294;51.106;7.028;2023-05-18T12:13:04;7.00;;;2.30;;
18336;SDS011;9294;51.106;7.028;2023-05-18T12:15:32;2.67;;;2.20;;
18336;SDS011;9294;51.106;7.028;2023-05-18T12:18:01;2.33;;;1.98;;
18336;SDS011;9294;51.106;7.028;2023-05-18T12:20:28;1.77;;;1.65;;
18336;SDS011;9294;51.106;7.028;2023-05-18T12:22:56;5.93;;;2.08;;
18336;SDS011;9294;51.106;7.028;2023-05-18T12:25:24;3.60;;;2.30;;
18336;SDS011;9294;51.106;7.028;2023-05-18T12:27:51;3.53;;;2.20;;
18336;SDS011;9294;51.106;7.028;2023-05-18T12:30:19;3.30;;;2.22;;
18336;SDS011;9294;51.106;7.028;2023-05-18T12:32:49;2.70;;;2.20;;
18336;SDS011;9294;51.106;7.028;2023-05-18T12:35:20;3.00;;;2.03;;
18336;SDS011;9294;51.106;7.028;2023-05-18T12:37:47;4.35;;;1.88;;
18336;SDS011;9294;51.106;7.028;2023-05-18T12:40:15;2.00;;;1.90;;
18336;SDS011;9294;51.106;7.028;2023-05-18T12:42:52;3.53;;;2.20;;
18336;SDS011;9294;51.106;7.028;2023-05-18T12:45:20;2.40;;;2.20;;
18336;SDS011;9294;51.106;7.028;2023-05-18T12:47:51;2.53;;;2.33;;
18336;SDS011;9294;51.106;7.028;2023-05-18T12:50:19;2.55;;;2.10;;
18336;SDS011;9294;51.106;7.028;2023-05-18T12:52:46;2.22;;;1.83;;
18336;SDS011;9294;51.106;7.028;2023-05-18T12:55:14;2.97;;;2.53;;
18336;SDS011;9294;51.106;7.028;2023-05-18T12:57:45;3.85;;;2.70;;
18336;SDS011;9294;51.106;7.028;2023-05-18T13:00:22;3.05;;;2.35;;
18336;SDS011;9294;51.106;7.028;2023-05-18T13:02:49;2.17;;;2.05;;
18336;SDS011;9294;51.106;7.028;2023-05-18T13:05:21;4.85;;;2.75;;
18336;SDS011;9294;51.106;7.028;2023-05-18T13:07:49;3.85;;;2.08;;
18336;SDS011;9294;51.106;7.028;2023-05-18T13:10:16;2.67;;;2.40;;
18336;SDS011;9294;51.106;7.028;2023-05-18T13:12:44;3.05;;;2.38;;
18336;SDS011;9294;51.106;7.028;2023-05-18T13:15:13;2.45;;;1.70;;
18336;SDS011;9294;51.106;7.028;2023-05-18T13:20:32;4.40;;;2.30;;
18336;SDS011;9294;51.106;7.028;2023-05-18T13:23:01;7.88;;;2.30;;
18336;SDS011;9294;51.106;7.028;2023-05-18T13:25:30;2.83;;;2.50;;
18336;SDS011;9294;51.106;7.028;2023-05-18T13:27:57;2.83;;;2.33;;
18336;SDS011;9294;51.106;7.028;2023-05-18T13:30:23;2.35;;;2.15;;
18336;SDS011;9294;51.106;7.028;2023-05-18T13:32:50;2.95;;;2.65;;
18336;SDS011;9294;51.106;7.028;2023-05-18T13:35:17;3.83;;;2.58;;
18336;SDS011;9294;51.106;7.028;2023-05-18T13:37:46;2.90;;;2.47;;
18336;SDS011;9294;51.106;7.028;2023-05-18T13:40:13;3.22;;;2.33;;
18336;SDS011;9294;51.106;7.028;2023-05-18T13:42:40;2.92;;;2.67;;
18336;SDS011;9294;51.106;7.028;2023-05-18T13:45:08;2.30;;;2.20;;
18336;SDS011;9294;51.106;7.028;2023-05-18T13:47:35;3.85;;;2.40;;
18336;SDS011;9294;51.106;7.028;2023-05-18T13:50:02;3.65;;;2.50;;
18336;SDS011;9294;51.106;7.028;2023-05-18T13:52:30;3.20;;;2.72;;
18336;SDS011;9294;51.106;7.028;2023-05-18T13:54:58;3.75;;;2.35;;
18336;SDS011;9294;51.106;7.028;2023-05-18T13:57:25;2.85;;;2.65;;
18336;SDS011;9294;51.106;7.028;2023-05-18T13:59:52;3.25;;;2.03;;
18336;SDS011;9294;51.106;7.028;2023-05-18T14:02:18;2.95;;;2.33;;
18336;SDS011;9294;51.106;7.028;2023-05-18T14:04:45;2.85;;;2.08;;
18336;SDS011;9294;51.106;7.028;2023-05-18T14:07:12;2.33;;;2.05;;
18336;SDS011;9294;51.106;7.028;2023-05-18T14:09:38;2.10;;;2.00;;
18336;SDS011;9294;51.106;7.028;2023-05-18T14:12:07;2.20;;;2.00;;
18336;SDS011;9294;51.106;7.028;2023-05-18T14:14:36;2.40;;;2.20;;
18336;SDS011;9294;51.106;7.028;2023-05-18T14:17:05;2.05;;;1.95;;
18336;SDS011;9294;51.106;7.028;2023-05-18T14:19:31;1.85;;;1.73;;
18336;SDS011;9294;51.106;7.028;2023-05-18T14:21:58;3.97;;;2.00;;
18336;SDS011;9294;51.106;7.028;2023-05-18T14:24:25;4.88;;;2.13;;
18336;SDS011;9294;51.106;7.028;2023-05-18T14:26:51;3.10;;;2.33;;
18336;SDS011;9294;51.106;7.028;2023-05-18T14:29:19;2.90;;;2.63;;
18336;SDS011;9294;51.106;7.028;2023-05-18T14:31:46;2.08;;;1.98;;
18336;SDS011;9294;51.106;7.028;2023-05-18T14:34:13;2.70;;;2.17;;
18336;SDS011;9294;51.106;7.028;2023-05-18T14:36:39;2.50;;;2.30;;
18336;SDS011;9294;51.106;7.028;2023-05-18T14:39:06;2.92;;;2.70;;
18336;SDS011;9294;51.106;7.028;2023-05-18T14:41:33;2.25;;;2.05;;
18336;SDS011;9294;51.106;7.028;2023-05-18T14:43:59;3.80;;;2.47;;
18336;SDS011;9294;51.106;7.028;2023-05-18T14:46:29;3.35;;;2.33;;
18336;SDS011;9294;51.106;7.028;2023-05-18T14:48:55;4.50;;;2.50;;
18336;SDS011;9294;51.106;7.028;2023-05-18T14:51:22;3.13;;;2.70;;
18336;SDS011;9294;51.106;7.028;2023-05-18T14:53:49;5.68;;;2.53;;
18336;SDS011;9294;51.106;7.028;2023-05-18T14:56:16;2.00;;;1.90;;
18336;SDS011;9294;51.106;7.028;2023-05-18T14:58:42;4.55;;;2.80;;
18336;SDS011;9294;51.106;7.028;2023-05-18T15:01:09;4.13;;;2.15;;
18336;SDS011;9294;51.106;7.028;2023-05-18T15:03:37;4.93;;;2.65;;
18336;SDS011;9294;51.106;7.028;2023-05-18T15:06:04;2.45;;;2.25;;
18336;SDS011;9294;51.106;7.028;2023-05-18T15:08:31;3.00;;;2.33;;
18336;SDS011;9294;51.106;7.028;2023-05-18T15:10:58;2.58;;;2.38;;
18336;SDS011;9294;51.106;7.028;2023-05-18T15:13:24;5.90;;;2.08;;